To NAV CANADA Home Page Login to a new session Search on AWWS site Feedback and Comments Disclaimer Vers la page française équivalente Tips FAQ What's new on the site To the Forecasts and Observations / NOTAM section To "File a Flight Plan" website Publications and other links Update of the User's profile FIC Telephone Numbers My Weather Data Folder Route Weather Data Regional Weather Data Local Weather Data To the Forecasts and Observations / NOTAM section
Request Generated 10/18/2017 at 03:50:43 UTC . Weather information available at that time is displayed.

METAR/TAF

ST. ANTHONY/NL    (show WxCam)

METAR CYAY 180300Z AUTO 26006KT 9SM OVC050 02/M01 A2992 RMK SLP136=
METAR CYAY 180200Z AUTO 26005KT 9SM OVC050 02/M01 A2992 RMK SLP134=
METAR CYAY 180100Z AUTO 26005KT 9SM OVC055 02/M02 A2990 RMK SLP130=

TAF CYAY 180138Z 1802/1814 26005KT P6SM OVC050 TEMPO 1803/1809 SCT050
FM181000 27006KT P6SM FEW030 BKN140
RMK FCST BASED ON AUTO OBS. NXT FCST BY 180800Z=
Your time UTC time
Weather data provided by Environment Canada and NAV CANADA